sensor_id;sensor_type;location;lat;lon;timestamp;temperature;humidity
8002;DHT22;4046;48.774;8.732;2023-03-08T00:01:47;20.40;64.60
8002;DHT22;4046;48.774;8.732;2023-03-08T00:04:14;20.40;64.60
8002;DHT22;4046;48.774;8.732;2023-03-08T00:06:40;20.40;64.60
8002;DHT22;4046;48.774;8.732;2023-03-08T00:09:06;20.40;64.60
8002;DHT22;4046;48.774;8.732;2023-03-08T00:11:32;20.40;64.60
8002;DHT22;4046;48.774;8.732;2023-03-08T00:13:58;20.40;64.60
8002;DHT22;4046;48.774;8.732;2023-03-08T00:16:26;20.40;64.60
8002;DHT22;4046;48.774;8.732;2023-03-08T00:18:52;20.40;64.60
8002;DHT22;4046;48.774;8.732;2023-03-08T00:21:18;20.40;64.60
8002;DHT22;4046;48.774;8.732;2023-03-08T00:23:45;20.40;64.60
8002;DHT22;4046;48.774;8.732;2023-03-08T00:26:12;20.40;64.60
8002;DHT22;4046;48.774;8.732;2023-03-08T00:28:38;20.40;64.60
8002;DHT22;4046;48.774;8.732;2023-03-08T00:31:10;20.40;64.60
8002;DHT22;4046;48.774;8.732;2023-03-08T00:33:37;20.40;64.60
8002;DHT22;4046;48.774;8.732;2023-03-08T00:36:09;20.40;64.60
8002;DHT22;4046;48.774;8.732;2023-03-08T00:38:37;20.40;64.60
8002;DHT22;4046;48.774;8.732;2023-03-08T00:41:04;20.40;64.60
8002;DHT22;4046;48.774;8.732;2023-03-08T00:43:30;20.40;64.60
8002;DHT22;4046;48.774;8.732;2023-03-08T00:45:57;20.40;64.60
8002;DHT22;4046;48.774;8.732;2023-03-08T00:48:23;20.40;64.60
8002;DHT22;4046;48.774;8.732;2023-03-08T00:50:50;20.40;64.60
8002;DHT22;4046;48.774;8.732;2023-03-08T00:53:16;20.40;64.60
8002;DHT22;4046;48.774;8.732;2023-03-08T00:55:53;20.40;64.60
8002;DHT22;4046;48.774;8.732;2023-03-08T00:58:20;20.40;65.40
8002;DHT22;4046;48.774;8.732;2023-03-08T01:00:47;20.40;64.60
8002;DHT22;4046;48.774;8.732;2023-03-08T01:03:14;20.40;64.60
8002;DHT22;4046;48.774;8.732;2023-03-08T01:05:45;20.40;64.60
8002;DHT22;4046;48.774;8.732;2023-03-08T01:08:13;20.40;64.60
8002;DHT22;4046;48.774;8.732;2023-03-08T01:10:39;20.40;64.60
8002;DHT22;4046;48.774;8.732;2023-03-08T01:13:06;20.40;64.60
8002;DHT22;4046;48.774;8.732;2023-03-08T01:15:36;20.40;64.60
8002;DHT22;4046;48.774;8.732;2023-03-08T01:18:04;20.40;64.70
8002;DHT22;4046;48.774;8.732;2023-03-08T01:20:32;20.40;64.60
8002;DHT22;4046;48.774;8.732;2023-03-08T01:22:58;20.40;64.70
8002;DHT22;4046;48.774;8.732;2023-03-08T01:25:25;20.40;64.70
8002;DHT22;4046;48.774;8.732;2023-03-08T01:27:51;20.40;64.70
8002;DHT22;4046;48.774;8.732;2023-03-08T01:30:17;20.40;64.70
8002;DHT22;4046;48.774;8.732;2023-03-08T01:32:43;20.40;64.60
8002;DHT22;4046;48.774;8.732;2023-03-08T01:35:09;20.40;64.70
8002;DHT22;4046;48.774;8.732;2023-03-08T01:37:36;20.40;64.60
8002;DHT22;4046;48.774;8.732;2023-03-08T01:40:03;20.40;64.60
8002;DHT22;4046;48.774;8.732;2023-03-08T01:42:31;20.40;64.60
8002;DHT22;4046;48.774;8.732;2023-03-08T01:45:59;20.40;64.70
8002;DHT22;4046;48.774;8.732;2023-03-08T01:47:47;20.40;64.60
8002;DHT22;4046;48.774;8.732;2023-03-08T01:50:13;20.40;64.70
8002;DHT22;4046;48.774;8.732;2023-03-08T01:52:47;20.40;64.70
8002;DHT22;4046;48.774;8.732;2023-03-08T01:55:14;20.40;64.70
8002;DHT22;4046;48.774;8.732;2023-03-08T01:57:45;20.40;64.70
8002;DHT22;4046;48.774;8.732;2023-03-08T02:00:17;20.40;64.70
8002;DHT22;4046;48.774;8.732;2023-03-08T02:02:51;20.40;64.70
8002;DHT22;4046;48.774;8.732;2023-03-08T02:05:19;20.40;64.70
8002;DHT22;4046;48.774;8.732;2023-03-08T02:07:45;20.30;64.70
8002;DHT22;4046;48.774;8.732;2023-03-08T02:10:12;20.30;64.70
8002;DHT22;4046;48.774;8.732;2023-03-08T02:12:39;20.40;64.80
8002;DHT22;4046;48.774;8.732;2023-03-08T02:15:08;20.30;64.70
8002;DHT22;4046;48.774;8.732;2023-03-08T02:17:37;20.30;64.70
8002;DHT22;4046;48.774;8.732;2023-03-08T02:20:11;20.40;64.80
8002;DHT22;4046;48.774;8.732;2023-03-08T02:22:40;20.40;64.90
8002;DHT22;4046;48.774;8.732;2023-03-08T02:27:47;20.30;64.80
8002;DHT22;4046;48.774;8.732;2023-03-08T02:30:17;20.30;64.80
8002;DHT22;4046;48.774;8.732;2023-03-08T02:32:43;20.30;64.80
8002;DHT22;4046;48.774;8.732;2023-03-08T02:35:09;20.40;64.90
8002;DHT22;4046;48.774;8.732;2023-03-08T02:37:36;20.40;64.90
8002;DHT22;4046;48.774;8.732;2023-03-08T02:40:02;20.40;64.90
8002;DHT22;4046;48.774;8.732;2023-03-08T02:42:28;20.30;64.80
8002;DHT22;4046;48.774;8.732;2023-03-08T02:44:55;20.40;64.90
8002;DHT22;4046;48.774;8.732;2023-03-08T02:47:21;20.40;65.00
8002;DHT22;4046;48.774;8.732;2023-03-08T02:49:47;20.40;64.90
8002;DHT22;4046;48.774;8.732;2023-03-08T02:52:13;20.30;64.80
8002;DHT22;4046;48.774;8.732;2023-03-08T02:54:39;20.30;64.80
8002;DHT22;4046;48.774;8.732;2023-03-08T02:57:06;20.40;65.80
8002;DHT22;4046;48.774;8.732;2023-03-08T02:59:32;20.30;64.80
8002;DHT22;4046;48.774;8.732;2023-03-08T03:01:58;20.30;64.80
8002;DHT22;4046;48.774;8.732;2023-03-08T03:04:31;20.40;65.00
8002;DHT22;4046;48.774;8.732;2023-03-08T03:06:58;20.30;64.90
8002;DHT22;4046;48.774;8.732;2023-03-08T03:09:24;20.30;64.90
8002;DHT22;4046;48.774;8.732;2023-03-08T03:11:50;20.30;64.90
8002;DHT22;4046;48.774;8.732;2023-03-08T03:14:17;20.30;64.90
8002;DHT22;4046;48.774;8.732;2023-03-08T03:16:43;20.30;64.90
8002;DHT22;4046;48.774;8.732;2023-03-08T03:19:10;20.30;64.90
8002;DHT22;4046;48.774;8.732;2023-03-08T03:21:38;20.30;64.80
8002;DHT22;4046;48.774;8.732;2023-03-08T03:24:05;20.30;64.90
8002;DHT22;4046;48.774;8.732;2023-03-08T03:26:32;20.30;64.80
8002;DHT22;4046;48.774;8.732;2023-03-08T03:28:59;20.30;64.80
8002;DHT22;4046;48.774;8.732;2023-03-08T03:31:25;20.30;64.80
8002;DHT22;4046;48.774;8.732;2023-03-08T03:33:52;20.30;64.90
8002;DHT22;4046;48.774;8.732;2023-03-08T03:36:20;20.30;64.90
8002;DHT22;4046;48.774;8.732;2023-03-08T03:38:47;20.30;64.90
8002;DHT22;4046;48.774;8.732;2023-03-08T03:41:19;20.30;64.90
8002;DHT22;4046;48.774;8.732;2023-03-08T03:43:46;20.30;64.90
8002;DHT22;4046;48.774;8.732;2023-03-08T03:46:15;20.30;64.90
8002;DHT22;4046;48.774;8.732;2023-03-08T03:48:42;20.30;64.90
8002;DHT22;4046;48.774;8.732;2023-03-08T03:51:16;20.30;64.90
8002;DHT22;4046;48.774;8.732;2023-03-08T03:53:43;20.30;64.90
8002;DHT22;4046;48.774;8.732;2023-03-08T03:56:13;20.30;64.90
8002;DHT22;4046;48.774;8.732;2023-03-08T03:58:40;20.30;64.90
8002;DHT22;4046;48.774;8.732;2023-03-08T04:01:08;20.30;65.00
8002;DHT22;4046;48.774;8.732;2023-03-08T04:03:35;20.30;64.90
8002;DHT22;4046;48.774;8.732;2023-03-08T04:06:08;20.30;64.90
8002;DHT22;4046;48.774;8.732;2023-03-08T04:08:35;20.30;64.90
8002;DHT22;4046;48.774;8.732;2023-03-08T04:11:16;20.30;65.00
8002;DHT22;4046;48.774;8.732;2023-03-08T04:13:43;20.30;65.00
8002;DHT22;4046;48.774;8.732;2023-03-08T04:16:18;20.30;65.00
8002;DHT22;4046;48.774;8.732;2023-03-08T04:18:45;20.30;65.80
8002;DHT22;4046;48.774;8.732;2023-03-08T04:21:12;20.30;65.00
8002;DHT22;4046;48.774;8.732;2023-03-08T04:23:39;20.30;65.00
8002;DHT22;4046;48.774;8.732;2023-03-08T04:26:06;20.30;65.00
8002;DHT22;4046;48.774;8.732;2023-03-08T04:28:32;20.30;65.00
8002;DHT22;4046;48.774;8.732;2023-03-08T04:31:09;20.30;65.00
8002;DHT22;4046;48.774;8.732;2023-03-08T04:33:36;20.30;65.00
8002;DHT22;4046;48.774;8.732;2023-03-08T04:36:02;20.30;65.00
8002;DHT22;4046;48.774;8.732;2023-03-08T04:38:28;20.30;65.00
8002;DHT22;4046;48.774;8.732;2023-03-08T04:40:54;20.30;65.00
8002;DHT22;4046;48.774;8.732;2023-03-08T04:43:54;20.30;65.00
8002;DHT22;4046;48.774;8.732;2023-03-08T04:46:23;20.30;65.00
8002;DHT22;4046;48.774;8.732;2023-03-08T04:48:50;20.30;65.00
8002;DHT22;4046;48.774;8.732;2023-03-08T04:51:22;20.30;65.00
8002;DHT22;4046;48.774;8.732;2023-03-08T04:53:49;20.30;65.00
8002;DHT22;4046;48.774;8.732;2023-03-08T04:56:16;20.30;65.00
8002;DHT22;4046;48.774;8.732;2023-03-08T04:58:42;20.30;65.00
8002;DHT22;4046;48.774;8.732;2023-03-08T05:03:39;20.30;65.00
8002;DHT22;4046;48.774;8.732;2023-03-08T05:06:06;20.30;64.90
8002;DHT22;4046;48.774;8.732;2023-03-08T05:08:33;20.30;64.90
8002;DHT22;4046;48.774;8.732;2023-03-08T05:11:00;20.30;65.00
8002;DHT22;4046;48.774;8.732;2023-03-08T05:13:33;20.30;65.00
8002;DHT22;4046;48.774;8.732;2023-03-08T05:15:59;20.30;64.90
8002;DHT22;4046;48.774;8.732;2023-03-08T05:18:26;20.30;64.90
8002;DHT22;4046;48.774;8.732;2023-03-08T05:20:54;20.30;64.90
8002;DHT22;4046;48.774;8.732;2023-03-08T05:23:20;20.30;64.90
8002;DHT22;4046;48.774;8.732;2023-03-08T05:25:50;20.30;64.80
8002;DHT22;4046;48.774;8.732;2023-03-08T05:28:17;20.30;64.80
8002;DHT22;4046;48.774;8.732;2023-03-08T05:30:43;20.30;64.80
8002;DHT22;4046;48.774;8.732;2023-03-08T05:33:09;20.30;64.80
8002;DHT22;4046;48.774;8.732;2023-03-08T05:35:35;20.30;64.90
8002;DHT22;4046;48.774;8.732;2023-03-08T05:38:02;20.30;64.80
8002;DHT22;4046;48.774;8.732;2023-03-08T05:40:28;20.30;64.80
8002;DHT22;4046;48.774;8.732;2023-03-08T05:42:54;20.30;64.80
8002;DHT22;4046;48.774;8.732;2023-03-08T05:45:21;20.30;64.80
8002;DHT22;4046;48.774;8.732;2023-03-08T05:47:47;20.30;64.80
8002;DHT22;4046;48.774;8.732;2023-03-08T05:50:13;20.30;64.90
8002;DHT22;4046;48.774;8.732;2023-03-08T05:52:39;20.30;64.90
8002;DHT22;4046;48.774;8.732;2023-03-08T05:55:07;20.30;64.90
8002;DHT22;4046;48.774;8.732;2023-03-08T05:57:34;20.20;64.70
8002;DHT22;4046;48.774;8.732;2023-03-08T06:00:03;20.30;64.90
8002;DHT22;4046;48.774;8.732;2023-03-08T06:02:29;20.30;64.90
8002;DHT22;4046;48.774;8.732;2023-03-08T06:04:56;20.30;64.90
8002;DHT22;4046;48.774;8.732;2023-03-08T06:07:22;20.30;65.10
8002;DHT22;4046;48.774;8.732;2023-03-08T06:09:48;20.20;65.00
8002;DHT22;4046;48.774;8.732;2023-03-08T06:12:16;20.30;65.20
8002;DHT22;4046;48.774;8.732;2023-03-08T06:14:43;20.30;65.20
8002;DHT22;4046;48.774;8.732;2023-03-08T06:17:09;20.30;65.40
8002;DHT22;4046;48.774;8.732;2023-03-08T06:19:35;20.30;65.40
8002;DHT22;4046;48.774;8.732;2023-03-08T06:22:02;20.30;65.50
8002;DHT22;4046;48.774;8.732;2023-03-08T06:24:28;20.30;65.50
8002;DHT22;4046;48.774;8.732;2023-03-08T06:26:54;20.30;65.50
8002;DHT22;4046;48.774;8.732;2023-03-08T06:29:21;20.30;65.60
8002;DHT22;4046;48.774;8.732;2023-03-08T06:31:47;20.30;65.50
8002;DHT22;4046;48.774;8.732;2023-03-08T06:34:14;20.30;65.60
8002;DHT22;4046;48.774;8.732;2023-03-08T06:36:40;20.30;65.70
8002;DHT22;4046;48.774;8.732;2023-03-08T06:39:06;20.30;65.70
8002;DHT22;4046;48.774;8.732;2023-03-08T06:41:33;20.30;65.70
8002;DHT22;4046;48.774;8.732;2023-03-08T06:43:59;20.30;65.90
8002;DHT22;4046;48.774;8.732;2023-03-08T06:46:26;20.40;66.10
8002;DHT22;4046;48.774;8.732;2023-03-08T06:48:52;20.30;65.90
8002;DHT22;4046;48.774;8.732;2023-03-08T06:51:19;20.40;66.10
8002;DHT22;4046;48.774;8.732;2023-03-08T06:53:46;20.30;66.80
8002;DHT22;4046;48.774;8.732;2023-03-08T06:56:15;20.30;66.10
8002;DHT22;4046;48.774;8.732;2023-03-08T06:58:42;20.30;66.30
8002;DHT22;4046;48.774;8.732;2023-03-08T07:01:09;20.40;66.50
8002;DHT22;4046;48.774;8.732;2023-03-08T07:03:36;20.40;66.40
8002;DHT22;4046;48.774;8.732;2023-03-08T07:06:05;20.30;66.20
8002;DHT22;4046;48.774;8.732;2023-03-08T07:08:33;20.40;66.30
8002;DHT22;4046;48.774;8.732;2023-03-08T07:10:59;20.30;66.30
8002;DHT22;4046;48.774;8.732;2023-03-08T07:13:27;20.30;66.20
8002;DHT22;4046;48.774;8.732;2023-03-08T07:15:55;20.30;66.60
8002;DHT22;4046;48.774;8.732;2023-03-08T07:18:21;20.30;66.50
8002;DHT22;4046;48.774;8.732;2023-03-08T07:20:52;20.30;66.60
8002;DHT22;4046;48.774;8.732;2023-03-08T07:23:20;20.40;66.60
8002;DHT22;4046;48.774;8.732;2023-03-08T07:25:46;20.30;66.60
8002;DHT22;4046;48.774;8.732;2023-03-08T07:28:13;20.30;66.50
8002;DHT22;4046;48.774;8.732;2023-03-08T07:30:39;20.30;66.50
8002;DHT22;4046;48.774;8.732;2023-03-08T07:33:06;20.30;66.50
8002;DHT22;4046;48.774;8.732;2023-03-08T07:35:32;20.30;66.60
8002;DHT22;4046;48.774;8.732;2023-03-08T07:37:58;20.30;66.50
8002;DHT22;4046;48.774;8.732;2023-03-08T07:40:24;20.30;66.50
8002;DHT22;4046;48.774;8.732;2023-03-08T07:42:51;20.30;66.40
8002;DHT22;4046;48.774;8.732;2023-03-08T07:45:17;20.30;66.40
8002;DHT22;4046;48.774;8.732;2023-03-08T07:47:43;20.30;66.50
8002;DHT22;4046;48.774;8.732;2023-03-08T07:50:10;20.40;66.60
8002;DHT22;4046;48.774;8.732;2023-03-08T07:52:37;20.40;66.50
8002;DHT22;4046;48.774;8.732;2023-03-08T07:55:03;20.40;66.50
8002;DHT22;4046;48.774;8.732;2023-03-08T07:57:30;20.40;66.50
8002;DHT22;4046;48.774;8.732;2023-03-08T07:59:56;20.40;66.50
8002;DHT22;4046;48.774;8.732;2023-03-08T08:02:22;20.40;66.50
8002;DHT22;4046;48.774;8.732;2023-03-08T08:04:49;20.40;66.50
8002;DHT22;4046;48.774;8.732;2023-03-08T08:07:16;20.40;66.40
8002;DHT22;4046;48.774;8.732;2023-03-08T08:09:42;20.50;66.50
8002;DHT22;4046;48.774;8.732;2023-03-08T08:12:08;20.40;66.40
8002;DHT22;4046;48.774;8.732;2023-03-08T08:14:35;20.40;66.50
8002;DHT22;4046;48.774;8.732;2023-03-08T08:17:01;20.40;66.40
8002;DHT22;4046;48.774;8.732;2023-03-08T08:19:28;20.40;66.50
8002;DHT22;4046;48.774;8.732;2023-03-08T08:21:57;20.40;66.50
8002;DHT22;4046;48.774;8.732;2023-03-08T08:24:23;20.40;66.50
8002;DHT22;4046;48.774;8.732;2023-03-08T08:26:50;20.50;66.60
8002;DHT22;4046;48.774;8.732;2023-03-08T08:29:16;20.40;66.50
8002;DHT22;4046;48.774;8.732;2023-03-08T08:31:42;20.50;66.60
8002;DHT22;4046;48.774;8.732;2023-03-08T08:34:09;20.40;66.60
8002;DHT22;4046;48.774;8.732;2023-03-08T08:36:36;20.40;66.60
8002;DHT22;4046;48.774;8.732;2023-03-08T08:39:03;20.40;66.60
8002;DHT22;4046;48.774;8.732;2023-03-08T08:41:29;20.40;66.60
8002;DHT22;4046;48.774;8.732;2023-03-08T08:43:58;20.40;66.60
8002;DHT22;4046;48.774;8.732;2023-03-08T08:46:26;20.40;66.60
8002;DHT22;4046;48.774;8.732;2023-03-08T08:48:54;20.50;66.70
8002;DHT22;4046;48.774;8.732;2023-03-08T08:51:20;20.40;66.60
8002;DHT22;4046;48.774;8.732;2023-03-08T08:53:47;20.40;66.60
8002;DHT22;4046;48.774;8.732;2023-03-08T08:56:16;20.40;66.70
8002;DHT22;4046;48.774;8.732;2023-03-08T08:58:43;20.40;67.50
8002;DHT22;4046;48.774;8.732;2023-03-08T09:01:19;20.40;66.70
8002;DHT22;4046;48.774;8.732;2023-03-08T09:03:46;20.40;66.70
8002;DHT22;4046;48.774;8.732;2023-03-08T09:06:15;20.40;66.80
8002;DHT22;4046;48.774;8.732;2023-03-08T09:08:41;20.40;66.90
8002;DHT22;4046;48.774;8.732;2023-03-08T09:11:09;20.30;66.80
8002;DHT22;4046;48.774;8.732;2023-03-08T09:13:36;20.30;66.80
8002;DHT22;4046;48.774;8.732;2023-03-08T09:16:21;20.30;66.90
8002;DHT22;4046;48.774;8.732;2023-03-08T09:18:48;20.20;66.90
8002;DHT22;4046;48.774;8.732;2023-03-08T09:21:15;20.20;67.00
8002;DHT22;4046;48.774;8.732;2023-03-08T09:23:42;20.20;67.00
8002;DHT22;4046;48.774;8.732;2023-03-08T09:26:08;20.20;67.20
8002;DHT22;4046;48.774;8.732;2023-03-08T09:28:35;20.10;67.50
8002;DHT22;4046;48.774;8.732;2023-03-08T09:31:10;20.20;67.70
8002;DHT22;4046;48.774;8.732;2023-03-08T09:33:42;20.10;67.70
8002;DHT22;4046;48.774;8.732;2023-03-08T09:36:09;20.10;67.70
8002;DHT22;4046;48.774;8.732;2023-03-08T09:38:37;20.10;67.80
8002;DHT22;4046;48.774;8.732;2023-03-08T09:46:41;20.10;67.80
8002;DHT22;4046;48.774;8.732;2023-03-08T09:49:18;20.10;67.90
8002;DHT22;4046;48.774;8.732;2023-03-08T09:51:48;20.10;68.10
8002;DHT22;4046;48.774;8.732;2023-03-08T09:54:20;20.10;67.90
8002;DHT22;4046;48.774;8.732;2023-03-08T09:56:51;20.10;67.80
8002;DHT22;4046;48.774;8.732;2023-03-08T09:59:25;20.10;67.80
8002;DHT22;4046;48.774;8.732;2023-03-08T10:05:06;20.10;67.80
8002;DHT22;4046;48.774;8.732;2023-03-08T10:10:59;20.10;67.80
8002;DHT22;4046;48.774;8.732;2023-03-08T10:16:21;20.00;67.80
8002;DHT22;4046;48.774;8.732;2023-03-08T10:19:03;20.10;67.90
8002;DHT22;4046;48.774;8.732;2023-03-08T10:21:32;20.10;68.00
8002;DHT22;4046;48.774;8.732;2023-03-08T10:24:21;20.10;68.00
8002;DHT22;4046;48.774;8.732;2023-03-08T10:27:04;20.10;67.90
8002;DHT22;4046;48.774;8.732;2023-03-08T10:29:31;20.10;68.00
8002;DHT22;4046;48.774;8.732;2023-03-08T10:31:57;20.10;68.10
8002;DHT22;4046;48.774;8.732;2023-03-08T10:34:29;20.20;68.20
8002;DHT22;4046;48.774;8.732;2023-03-08T10:36:59;20.20;68.10
8002;DHT22;4046;48.774;8.732;2023-03-08T10:39:26;20.30;68.60
8002;DHT22;4046;48.774;8.732;2023-03-08T10:41:56;20.40;68.60
8002;DHT22;4046;48.774;8.732;2023-03-08T10:44:39;20.40;68.30
8002;DHT22;4046;48.774;8.732;2023-03-08T10:47:28;20.50;68.30
8002;DHT22;4046;48.774;8.732;2023-03-08T10:52:29;20.60;68.30
8002;DHT22;4046;48.774;8.732;2023-03-08T10:57:27;20.60;68.20
8002;DHT22;4046;48.774;8.732;2023-03-08T10:59:57;20.60;68.20
8002;DHT22;4046;48.774;8.732;2023-03-08T11:02:24;20.60;68.30
8002;DHT22;4046;48.774;8.732;2023-03-08T11:04:55;20.60;68.30
8002;DHT22;4046;48.774;8.732;2023-03-08T11:07:30;20.60;68.40
8002;DHT22;4046;48.774;8.732;2023-03-08T11:10:15;20.50;68.50
8002;DHT22;4046;48.774;8.732;2023-03-08T11:12:43;20.40;68.60
8002;DHT22;4046;48.774;8.732;2023-03-08T11:15:18;20.40;68.70
8002;DHT22;4046;48.774;8.732;2023-03-08T11:20:34;20.30;68.90
8002;DHT22;4046;48.774;8.732;2023-03-08T11:23:21;20.20;69.00
8002;DHT22;4046;48.774;8.732;2023-03-08T11:26:17;20.20;69.10
8002;DHT22;4046;48.774;8.732;2023-03-08T11:32:06;20.20;69.20
8002;DHT22;4046;48.774;8.732;2023-03-08T11:53:05;20.10;69.20
8002;DHT22;4046;48.774;8.732;2023-03-08T11:58:49;20.10;69.40
8002;DHT22;4046;48.774;8.732;2023-03-08T12:01:06;20.10;69.50
8002;DHT22;4046;48.774;8.732;2023-03-08T12:03:48;20.20;69.60
8002;DHT22;4046;48.774;8.732;2023-03-08T12:06:36;20.20;69.80
8002;DHT22;4046;48.774;8.732;2023-03-08T12:12:05;20.10;69.70
8002;DHT22;4046;48.774;8.732;2023-03-08T12:14:45;20.10;70.00
8002;DHT22;4046;48.774;8.732;2023-03-08T12:17:19;20.10;69.90
8002;DHT22;4046;48.774;8.732;2023-03-08T12:19:48;20.10;70.10
8002;DHT22;4046;48.774;8.732;2023-03-08T12:22:40;20.10;70.30
8002;DHT22;4046;48.774;8.732;2023-03-08T12:30:37;20.10;70.50
8002;DHT22;4046;48.774;8.732;2023-03-08T12:33:05;20.10;70.40
8002;DHT22;4046;48.774;8.732;2023-03-08T12:35:37;20.10;70.40
8002;DHT22;4046;48.774;8.732;2023-03-08T12:38:05;20.20;70.50
8002;DHT22;4046;48.774;8.732;2023-03-08T12:40:53;20.20;70.50
8002;DHT22;4046;48.774;8.732;2023-03-08T12:45:59;20.20;70.50
8002;DHT22;4046;48.774;8.732;2023-03-08T12:48:58;20.20;70.80
8002;DHT22;4046;48.774;8.732;2023-03-08T12:51:31;20.20;70.70
8002;DHT22;4046;48.774;8.732;2023-03-08T12:54:00;20.20;70.80
8002;DHT22;4046;48.774;8.732;2023-03-08T12:56:34;20.20;70.50
8002;DHT22;4046;48.774;8.732;2023-03-08T13:01:45;20.20;70.90
8002;DHT22;4046;48.774;8.732;2023-03-08T13:04:38;20.20;70.90
8002;DHT22;4046;48.774;8.732;2023-03-08T13:19:58;20.20;71.30
8002;DHT22;4046;48.774;8.732;2023-03-08T13:22:32;20.10;71.30
8002;DHT22;4046;48.774;8.732;2023-03-08T13:28:13;20.10;71.20
8002;DHT22;4046;48.774;8.732;2023-03-08T13:33:26;20.10;71.60
8002;DHT22;4046;48.774;8.732;2023-03-08T13:38:23;20.10;72.10
8002;DHT22;4046;48.774;8.732;2023-03-08T13:40:51;20.10;71.80
8002;DHT22;4046;48.774;8.732;2023-03-08T13:43:23;20.10;71.60
8002;DHT22;4046;48.774;8.732;2023-03-08T13:45:52;20.10;71.70
8002;DHT22;4046;48.774;8.732;2023-03-08T13:48:20;20.10;71.70
8002;DHT22;4046;48.774;8.732;2023-03-08T13:50:50;20.10;71.80
8002;DHT22;4046;48.774;8.732;2023-03-08T13:53:19;20.20;72.00
8002;DHT22;4046;48.774;8.732;2023-03-08T13:55:49;20.20;72.00
8002;DHT22;4046;48.774;8.732;2023-03-08T13:58:37;20.20;71.90
8002;DHT22;4046;48.774;8.732;2023-03-08T14:01:16;20.20;71.60
8002;DHT22;4046;48.774;8.732;2023-03-08T14:03:45;20.20;71.70
8002;DHT22;4046;48.774;8.732;2023-03-08T14:06:28;20.20;71.90
8002;DHT22;4046;48.774;8.732;2023-03-08T14:08:57;20.20;72.00
8002;DHT22;4046;48.774;8.732;2023-03-08T14:11:29;20.20;72.30
8002;DHT22;4046;48.774;8.732;2023-03-08T14:13:57;20.20;72.00
8002;DHT22;4046;48.774;8.732;2023-03-08T14:16:29;20.20;72.30
8002;DHT22;4046;48.774;8.732;2023-03-08T14:18:59;20.20;72.00
8002;DHT22;4046;48.774;8.732;2023-03-08T14:21:29;20.20;72.30
8002;DHT22;4046;48.774;8.732;2023-03-08T14:24:01;20.20;72.20
8002;DHT22;4046;48.774;8.732;2023-03-08T14:26:38;20.20;72.10
8002;DHT22;4046;48.774;8.732;2023-03-08T14:32:21;20.20;72.00
8002;DHT22;4046;48.774;8.732;2023-03-08T14:34:49;20.20;72.40
8002;DHT22;4046;48.774;8.732;2023-03-08T14:37:19;20.20;72.40
8002;DHT22;4046;48.774;8.732;2023-03-08T14:39:49;20.20;72.40
8002;DHT22;4046;48.774;8.732;2023-03-08T14:42:40;20.20;72.50
8002;DHT22;4046;48.774;8.732;2023-03-08T14:45:31;20.20;72.50
8002;DHT22;4046;48.774;8.732;2023-03-08T14:48:00;20.20;72.70
8002;DHT22;4046;48.774;8.732;2023-03-08T14:50:30;20.20;72.70
8002;DHT22;4046;48.774;8.732;2023-03-08T14:52:59;20.20;72.60
8002;DHT22;4046;48.774;8.732;2023-03-08T14:55:33;20.20;72.40
8002;DHT22;4046;48.774;8.732;2023-03-08T14:58:03;20.20;72.60
8002;DHT22;4046;48.774;8.732;2023-03-08T15:00:33;20.20;72.70
8002;DHT22;4046;48.774;8.732;2023-03-08T15:03:00;20.20;72.60
8002;DHT22;4046;48.774;8.732;2023-03-08T15:05:27;20.20;72.60
8002;DHT22;4046;48.774;8.732;2023-03-08T15:07:54;20.20;72.60
8002;DHT22;4046;48.774;8.732;2023-03-08T15:10:24;20.20;72.50
8002;DHT22;4046;48.774;8.732;2023-03-08T15:12:51;20.20;72.40
8002;DHT22;4046;48.774;8.732;2023-03-08T15:15:17;20.20;72.60
8002;DHT22;4046;48.774;8.732;2023-03-08T15:17:44;20.20;73.00
8002;DHT22;4046;48.774;8.732;2023-03-08T15:20:11;20.20;72.80
8002;DHT22;4046;48.774;8.732;2023-03-08T15:22:52;20.20;73.10
8002;DHT22;4046;48.774;8.732;2023-03-08T15:25:28;20.20;72.60
8002;DHT22;4046;48.774;8.732;2023-03-08T15:27:55;20.20;72.60
8002;DHT22;4046;48.774;8.732;2023-03-08T15:30:23;20.20;72.60
8002;DHT22;4046;48.774;8.732;2023-03-08T15:32:50;20.20;72.60
8002;DHT22;4046;48.774;8.732;2023-03-08T15:35:17;20.20;73.30
8002;DHT22;4046;48.774;8.732;2023-03-08T15:37:44;20.30;72.60
8002;DHT22;4046;48.774;8.732;2023-03-08T15:40:12;20.20;72.40
8002;DHT22;4046;48.774;8.732;2023-03-08T15:42:39;20.20;72.40
8002;DHT22;4046;48.774;8.732;2023-03-08T15:45:05;20.20;72.30
8002;DHT22;4046;48.774;8.732;2023-03-08T15:47:32;20.30;72.40
8002;DHT22;4046;48.774;8.732;2023-03-08T15:49:58;20.30;72.30
8002;DHT22;4046;48.774;8.732;2023-03-08T15:52:27;20.20;72.10
8002;DHT22;4046;48.774;8.732;2023-03-08T15:54:54;20.20;72.10
8002;DHT22;4046;48.774;8.732;2023-03-08T15:57:20;20.20;72.00
8002;DHT22;4046;48.774;8.732;2023-03-08T15:59:47;20.20;71.90
8002;DHT22;4046;48.774;8.732;2023-03-08T16:02:16;20.20;72.00
8002;DHT22;4046;48.774;8.732;2023-03-08T16:04:43;20.20;72.00
8002;DHT22;4046;48.774;8.732;2023-03-08T16:07:14;20.20;72.00
8002;DHT22;4046;48.774;8.732;2023-03-08T16:09:40;20.20;71.90
8002;DHT22;4046;48.774;8.732;2023-03-08T16:12:07;20.20;71.90
8002;DHT22;4046;48.774;8.732;2023-03-08T16:14:34;20.20;71.80
8002;DHT22;4046;48.774;8.732;2023-03-08T16:17:01;20.20;71.80
8002;DHT22;4046;48.774;8.732;2023-03-08T16:19:32;20.20;71.80
8002;DHT22;4046;48.774;8.732;2023-03-08T16:22:00;20.20;71.70
8002;DHT22;4046;48.774;8.732;2023-03-08T16:24:27;20.30;71.80
8002;DHT22;4046;48.774;8.732;2023-03-08T16:26:53;20.20;71.60
8002;DHT22;4046;48.774;8.732;2023-03-08T16:29:20;20.20;71.60
8002;DHT22;4046;48.774;8.732;2023-03-08T16:31:47;20.20;71.60
8002;DHT22;4046;48.774;8.732;2023-03-08T16:34:13;20.20;71.60
8002;DHT22;4046;48.774;8.732;2023-03-08T16:36:40;20.20;71.60
8002;DHT22;4046;48.774;8.732;2023-03-08T16:39:06;20.20;71.60
8002;DHT22;4046;48.774;8.732;2023-03-08T16:41:37;20.20;71.60
8002;DHT22;4046;48.774;8.732;2023-03-08T16:44:04;20.20;71.60
8002;DHT22;4046;48.774;8.732;2023-03-08T16:46:32;20.20;71.60
8002;DHT22;4046;48.774;8.732;2023-03-08T16:48:58;20.30;71.60
8002;DHT22;4046;48.774;8.732;2023-03-08T16:51:26;20.30;71.50
8002;DHT22;4046;48.774;8.732;2023-03-08T16:53:53;20.30;71.50
8002;DHT22;4046;48.774;8.732;2023-03-08T16:56:28;20.40;71.50
8002;DHT22;4046;48.774;8.732;2023-03-08T16:58:57;20.40;71.50
8002;DHT22;4046;48.774;8.732;2023-03-08T17:01:24;20.40;71.40
8002;DHT22;4046;48.774;8.732;2023-03-08T17:03:51;20.40;71.40
8002;DHT22;4046;48.774;8.732;2023-03-08T17:06:20;20.50;71.50
8002;DHT22;4046;48.774;8.732;2023-03-08T17:08:47;20.50;71.40
8002;DHT22;4046;48.774;8.732;2023-03-08T17:11:18;20.50;71.40
8002;DHT22;4046;48.774;8.732;2023-03-08T17:13:53;20.50;71.30
8002;DHT22;4046;48.774;8.732;2023-03-08T17:16:22;20.50;71.30
8002;DHT22;4046;48.774;8.732;2023-03-08T17:18:50;20.60;71.30
8002;DHT22;4046;48.774;8.732;2023-03-08T17:21:17;20.60;71.30
8002;DHT22;4046;48.774;8.732;2023-03-08T17:23:44;20.60;71.30
8002;DHT22;4046;48.774;8.732;2023-03-08T17:26:11;20.60;71.30
8002;DHT22;4046;48.774;8.732;2023-03-08T17:28:38;20.60;71.30
8002;DHT22;4046;48.774;8.732;2023-03-08T17:31:13;20.60;71.30
8002;DHT22;4046;48.774;8.732;2023-03-08T17:33:40;20.60;71.30
8002;DHT22;4046;48.774;8.732;2023-03-08T17:36:08;20.60;71.30
8002;DHT22;4046;48.774;8.732;2023-03-08T17:38:34;20.60;71.30
8002;DHT22;4046;48.774;8.732;2023-03-08T17:41:10;20.60;71.30
8002;DHT22;4046;48.774;8.732;2023-03-08T17:43:37;20.60;71.30
8002;DHT22;4046;48.774;8.732;2023-03-08T17:46:07;20.60;71.30